createdAt,value
2019-03-06T00:01:26.565Z,14.58
2019-03-06T00:03:55.997Z,13.80
2019-03-06T00:06:25.499Z,12.40
2019-03-06T00:08:54.935Z,12.78
2019-03-06T00:11:24.497Z,12.80
2019-03-06T00:13:53.904Z,17.52
2019-03-06T00:16:23.718Z,16.87
2019-03-06T00:18:53.145Z,17.07
2019-03-06T00:21:22.561Z,12.40
2019-03-06T00:23:52.035Z,18.32
2019-03-06T00:26:21.848Z,50.48
2019-03-06T00:28:51.262Z,14.05
2019-03-06T00:31:20.687Z,14.05
2019-03-06T00:33:50.310Z,18.90
2019-03-06T00:36:22.070Z,26.82
2019-03-06T00:38:51.873Z,20.23
2019-03-06T00:41:33.864Z,25.65
2019-03-06T00:44:03.302Z,19.23
2019-03-06T00:46:33.407Z,37.30
2019-03-06T00:49:02.873Z,19.10
2019-03-06T00:51:32.271Z,19.90
2019-03-06T00:54:01.692Z,14.97
2019-03-06T00:56:31.121Z,17.92
2019-03-06T00:59:00.831Z,13.32
2019-03-06T01:01:30.263Z,21.87
2019-03-06T01:03:59.679Z,16.85
2019-03-06T01:06:29.130Z,13.55
2019-03-06T01:08:58.944Z,104.45
2019-03-06T01:11:28.459Z,42.43
2019-03-06T01:13:57.883Z,35.30
2019-03-06T01:16:27.313Z,40.40
2019-03-06T01:18:56.977Z,35.78
2019-03-06T01:21:26.401Z,25.95
2019-03-06T01:23:56.246Z,39.10
2019-03-06T01:26:25.713Z,22.77
2019-03-06T01:28:55.177Z,34.50
2019-03-06T01:31:24.689Z,38.23
2019-03-06T01:34:22.234Z,32.03
2019-03-06T01:37:06.751Z,19.42
2019-03-06T01:39:54.211Z,33.35
2019-03-06T01:42:35.266Z,23.00
2019-03-06T01:45:07.787Z,12.37
2019-03-06T01:47:37.214Z,15.72
2019-03-06T01:50:09.473Z,10.88
2019-03-06T01:52:38.919Z,12.90
2019-03-06T01:55:09.871Z,13.38
2019-03-06T01:57:39.310Z,14.35
2019-03-06T02:00:10.936Z,15.98
2019-03-06T02:02:40.698Z,23.27
2019-03-06T02:05:10.877Z,20.60
2019-03-06T02:07:40.526Z,11.25
2019-03-06T02:10:11.147Z,18.17
2019-03-06T02:12:40.583Z,11.80
2019-03-06T02:15:11.674Z,11.57
2019-03-06T02:17:41.091Z,21.40
2019-03-06T02:20:12.435Z,11.25
2019-03-06T02:22:41.913Z,13.72
2019-03-06T02:25:11.373Z,13.90
2019-03-06T02:27:40.848Z,14.00
2019-03-06T02:30:13.461Z,27.20
2019-03-06T02:32:42.916Z,12.28
2019-03-06T02:35:12.334Z,17.98
2019-03-06T02:37:41.822Z,16.07
2019-03-06T02:40:11.476Z,48.80
2019-03-06T02:42:40.914Z,28.73
2019-03-06T02:45:11.697Z,14.55
2019-03-06T02:47:41.167Z,25.10
2019-03-06T02:50:11.977Z,31.62
2019-03-06T02:52:41.597Z,22.75
2019-03-06T02:55:11.234Z,18.65
2019-03-06T02:57:44.810Z,18.95
2019-03-06T03:00:43.697Z,27.75
2019-03-06T03:03:35.101Z,25.75
2019-03-06T03:06:08.536Z,26.00
2019-03-06T03:08:38.311Z,49.18
2019-03-06T03:11:07.749Z,44.27
2019-03-06T03:13:37.229Z,27.13
2019-03-06T03:16:06.660Z,34.00
2019-03-06T03:18:36.078Z,27.60
2019-03-06T03:21:05.547Z,30.57
2019-03-06T03:23:35.029Z,22.87
2019-03-06T03:26:04.566Z,40.30
2019-03-06T03:28:33.992Z,20.60
2019-03-06T03:31:03.436Z,17.73
2019-03-06T03:33:33.197Z,19.67
2019-03-06T03:36:02.653Z,19.30
2019-03-06T03:38:32.083Z,20.82
2019-03-06T03:41:01.554Z,19.27
2019-03-06T03:43:30.968Z,26.40
2019-03-06T03:46:00.446Z,31.25
2019-03-06T03:48:29.859Z,23.83
2019-03-06T03:50:59.339Z,29.30
2019-03-06T03:53:28.755Z,29.00
2019-03-06T03:55:58.192Z,20.27
2019-03-06T03:58:27.821Z,23.05
2019-03-06T04:00:57.259Z,28.15
2019-03-06T04:03:27.002Z,26.05
2019-03-06T04:05:56.410Z,28.10
2019-03-06T04:08:25.863Z,40.00
2019-03-06T04:10:55.278Z,21.80
2019-03-06T04:13:24.714Z,38.10
2019-03-06T04:15:54.131Z,37.63
2019-03-06T04:18:23.574Z,29.72
2019-03-06T04:20:53.013Z,29.98
2019-03-06T04:23:22.755Z,49.33
2019-03-06T04:25:52.226Z,30.68
2019-03-06T04:28:21.763Z,29.18
2019-03-06T04:30:53.479Z,34.43
2019-03-06T04:33:22.926Z,26.95
2019-03-06T04:35:52.345Z,23.22
2019-03-06T04:38:21.803Z,36.95
2019-03-06T04:40:51.228Z,35.13
2019-03-06T04:43:20.667Z,47.20
2019-03-06T04:45:50.095Z,42.85
2019-03-06T04:48:19.653Z,73.90
2019-03-06T04:50:49.086Z,46.33
2019-03-06T04:53:18.511Z,57.50
2019-03-06T04:55:47.937Z,50.83
2019-03-06T04:58:17.366Z,56.58
2019-03-06T05:00:46.787Z,44.73
2019-03-06T05:03:16.660Z,47.33
2019-03-06T05:05:46.106Z,71.20
2019-03-06T05:08:15.517Z,42.08
2019-03-06T05:10:44.965Z,38.58
2019-03-06T05:13:14.414Z,37.48
2019-03-06T05:15:43.848Z,36.48
2019-03-06T05:18:38.010Z,46.30
2019-03-06T05:21:07.481Z,43.08
2019-03-06T05:23:36.920Z,41.05
2019-03-06T05:26:06.368Z,50.48
2019-03-06T05:28:36.181Z,37.95
2019-03-06T05:31:05.639Z,51.18
2019-03-06T05:33:35.063Z,44.53
2019-03-06T05:36:29.214Z,50.83
2019-03-06T05:39:09.805Z,41.40
2019-03-06T05:41:39.537Z,43.80
2019-03-06T05:44:08.974Z,37.42
2019-03-06T05:46:38.428Z,41.33
2019-03-06T05:49:07.852Z,35.63
2019-03-06T05:51:37.326Z,40.45
2019-03-06T05:54:06.783Z,56.15
2019-03-06T05:56:36.247Z,117.50
2019-03-06T05:59:05.681Z,45.85
2019-03-06T06:01:35.699Z,43.20
2019-03-06T06:04:05.128Z,73.65
2019-03-06T06:06:34.726Z,66.30
2019-03-06T06:09:04.991Z,76.95
2019-03-06T06:11:34.415Z,36.55
2019-03-06T06:14:03.857Z,41.77
2019-03-06T06:16:33.411Z,44.88
2019-03-06T06:19:02.911Z,37.65
2019-03-06T06:21:50.079Z,32.45
2019-03-06T06:24:24.859Z,50.60
2019-03-06T06:26:54.283Z,38.63
2019-03-06T06:29:23.745Z,50.33
2019-03-06T06:31:53.177Z,69.25
2019-03-06T06:34:23.013Z,70.55
2019-03-06T06:36:52.464Z,40.85
2019-03-06T06:39:21.877Z,70.57
2019-03-06T06:41:51.308Z,38.38
2019-03-06T06:44:20.773Z,73.78
2019-03-06T06:46:50.236Z,38.78
2019-03-06T06:49:20.108Z,37.45
2019-03-06T06:52:12.519Z,58.35
2019-03-06T06:54:51.082Z,56.63
2019-03-06T06:57:52.211Z,38.65
2019-03-06T07:01:08.932Z,28.50
2019-03-06T07:04:27.731Z,44.90
2019-03-06T07:07:31.725Z,41.68
2019-03-06T07:10:18.787Z,31.17
2019-03-06T07:13:01.435Z,30.10
2019-03-06T07:15:49.384Z,50.83
2019-03-06T07:18:33.530Z,25.88
2019-03-06T07:21:11.210Z,29.50
2019-03-06T07:23:59.589Z,20.48
2019-03-06T07:26:51.204Z,30.80
2019-03-06T07:29:32.342Z,26.82
2019-03-06T07:32:23.695Z,24.85
2019-03-06T07:35:46.023Z,27.20
2019-03-06T07:38:15.508Z,28.38
2019-03-06T07:41:08.405Z,24.98
2019-03-06T07:43:55.972Z,25.85
2019-03-06T07:46:53.603Z,30.50
2019-03-06T07:49:33.137Z,21.40
2019-03-06T07:52:21.635Z,26.45
2019-03-06T07:55:06.527Z,24.98
2019-03-06T07:57:56.552Z,26.17
2019-03-06T08:00:25.994Z,27.93
2019-03-06T08:03:21.714Z,34.95
2019-03-06T08:05:51.130Z,27.50
2019-03-06T08:08:20.589Z,31.05
2019-03-06T08:10:51.635Z,33.63
2019-03-06T08:13:41.482Z,43.85
2019-03-06T08:16:28.625Z,39.13
2019-03-06T08:19:15.547Z,50.90
2019-03-06T08:21:53.352Z,37.23
2019-03-06T08:24:39.756Z,42.38
2019-03-06T08:27:28.522Z,42.53
2019-03-06T08:30:02.037Z,40.90
2019-03-06T08:32:34.313Z,37.05
2019-03-06T08:35:03.753Z,40.73
2019-03-06T08:37:33.207Z,40.55
2019-03-06T08:40:03.058Z,44.27
2019-03-06T08:42:32.685Z,40.30
2019-03-06T08:45:02.182Z,39.90
2019-03-06T08:47:51.538Z,38.05
2019-03-06T08:50:30.083Z,33.83
2019-03-06T08:53:31.030Z,40.28
2019-03-06T08:56:08.029Z,44.63
2019-03-06T08:59:05.721Z,35.20
2019-03-06T09:02:15.106Z,37.30
2019-03-06T09:05:02.054Z,36.25
2019-03-06T09:07:49.362Z,33.63
2019-03-06T09:10:48.037Z,35.28
2019-03-06T09:13:44.275Z,35.75
2019-03-06T09:16:32.892Z,37.53
2019-03-06T09:19:21.685Z,33.45
2019-03-06T09:21:56.555Z,33.50
2019-03-06T09:24:43.349Z,32.08
2019-03-06T09:27:34.487Z,28.47
2019-03-06T09:30:16.254Z,28.10
2019-03-06T09:33:02.977Z,30.50
2019-03-06T09:35:43.975Z,33.55
2019-03-06T09:38:31.462Z,31.45
2019-03-06T09:41:26.040Z,27.62
2019-03-06T09:44:19.202Z,31.70
2019-03-06T09:47:06.992Z,26.80
2019-03-06T09:50:04.400Z,27.00
2019-03-06T09:52:55.921Z,25.90
2019-03-06T09:55:42.610Z,22.90
2019-03-06T09:58:40.562Z,24.45
2019-03-06T10:01:41.247Z,23.73
2019-03-06T10:04:26.836Z,19.87
2019-03-06T10:07:14.536Z,25.25
2019-03-06T10:10:05.759Z,24.87
2019-03-06T10:12:57.399Z,21.37
2019-03-06T10:15:36.751Z,19.98
2019-03-06T10:18:10.126Z,23.18
2019-03-06T10:20:39.657Z,25.40
2019-03-06T10:23:09.097Z,23.32
2019-03-06T10:25:38.517Z,24.60
2019-03-06T10:28:08.050Z,24.37
2019-03-06T10:30:37.641Z,26.93
2019-03-06T10:33:07.142Z,25.82
2019-03-06T10:35:36.683Z,24.55
2019-03-06T10:38:06.204Z,26.05
2019-03-06T10:40:35.667Z,23.55
2019-03-06T10:43:05.119Z,27.70
2019-03-06T10:45:41.329Z,24.52
2019-03-06T10:48:06.133Z,23.30
2019-03-06T10:50:35.924Z,24.02
2019-03-06T10:53:05.585Z,26.65
2019-03-06T10:55:34.985Z,26.23
2019-03-06T10:58:05.192Z,30.30
2019-03-06T11:00:37.852Z,22.65
2019-03-06T11:03:08.059Z,23.05
2019-03-06T11:05:37.814Z,22.58
2019-03-06T11:08:07.504Z,22.10
2019-03-06T11:10:36.979Z,20.25
2019-03-06T11:13:10.409Z,26.25
2019-03-06T11:15:40.912Z,23.35
2019-03-06T11:18:11.163Z,23.40
2019-03-06T11:20:41.541Z,22.62
2019-03-06T11:23:11.293Z,25.75
2019-03-06T11:25:41.041Z,23.62
2019-03-06T11:28:11.513Z,21.77
2019-03-06T11:30:48.341Z,26.25
2019-03-06T11:33:18.898Z,21.82
2019-03-06T11:35:49.426Z,21.17
2019-03-06T11:38:20.009Z,23.22
2019-03-06T11:40:49.445Z,20.82
2019-03-06T11:43:19.008Z,20.60
2019-03-06T11:45:48.823Z,22.10
2019-03-06T11:48:18.814Z,20.90
2019-03-06T11:50:48.608Z,24.90
2019-03-06T11:53:18.161Z,19.85
2019-03-06T11:55:48.134Z,18.48
2019-03-06T11:58:19.426Z,21.42
2019-03-06T12:00:50.166Z,21.40
2019-03-06T12:03:21.904Z,28.55
2019-03-06T12:05:51.676Z,44.03
2019-03-06T12:08:21.207Z,18.80
2019-03-06T12:10:51.923Z,77.27
2019-03-06T12:13:21.600Z,20.70
2019-03-06T12:15:51.819Z,23.80
2019-03-06T12:18:22.967Z,20.88
2019-03-06T12:20:53.269Z,18.90
2019-03-06T12:23:22.791Z,20.70
2019-03-06T12:25:52.236Z,20.55
2019-03-06T12:31:01.339Z,17.05
2019-03-06T12:33:30.913Z,17.65
2019-03-06T12:36:00.537Z,19.32
2019-03-06T12:38:30.747Z,17.87
2019-03-06T12:41:00.341Z,18.10
2019-03-06T12:43:31.964Z,22.65
2019-03-06T12:46:23.839Z,22.73
2019-03-06T12:49:16.411Z,20.17
2019-03-06T12:51:54.004Z,17.70
2019-03-06T12:54:17.622Z,20.08
2019-03-06T12:56:47.169Z,20.95
2019-03-06T12:59:17.406Z,19.75
2019-03-06T13:01:47.652Z,15.08
2019-03-06T13:04:17.234Z,15.90
2019-03-06T13:06:46.711Z,17.77
2019-03-06T13:09:18.618Z,17.70
2019-03-06T13:11:48.892Z,19.62
2019-03-06T13:14:18.574Z,16.52
2019-03-06T13:16:48.845Z,17.77
2019-03-06T13:19:18.516Z,13.98
2019-03-06T13:21:48.946Z,18.90
2019-03-06T13:24:19.096Z,16.90
2019-03-06T13:26:48.778Z,15.68
2019-03-06T13:29:18.659Z,19.60
2019-03-06T13:31:48.194Z,14.78
2019-03-06T13:34:25.485Z,18.37
2019-03-06T13:36:55.460Z,21.02
2019-03-06T13:39:26.202Z,15.55
2019-03-06T13:41:56.774Z,18.30
2019-03-06T13:44:26.369Z,23.27
2019-03-06T13:46:57.474Z,13.83
2019-03-06T13:49:27.693Z,17.35
2019-03-06T13:51:57.519Z,16.52
2019-03-06T13:54:27.304Z,17.60
2019-03-06T13:56:57.014Z,12.60
2019-03-06T13:59:26.847Z,16.62
2019-03-06T14:01:56.550Z,15.15
2019-03-06T14:04:26.623Z,15.83
2019-03-06T14:06:56.403Z,19.20
2019-03-06T14:09:26.077Z,20.25
2019-03-06T14:11:55.560Z,13.22
2019-03-06T14:14:25.571Z,13.43
2019-03-06T14:16:56.231Z,18.10
2019-03-06T14:19:27.470Z,15.38
2019-03-06T14:21:56.839Z,12.47
2019-03-06T14:24:26.387Z,18.10
2019-03-06T14:26:56.688Z,14.28
2019-03-06T14:29:26.395Z,14.70
2019-03-06T14:31:56.106Z,13.45
2019-03-06T14:34:25.959Z,16.07
2019-03-06T14:36:57.926Z,15.95
2019-03-06T14:39:29.650Z,12.85
2019-03-06T14:42:01.064Z,13.60
2019-03-06T14:44:30.649Z,12.10
2019-03-06T14:47:00.432Z,14.58
2019-03-06T14:49:30.511Z,11.73
2019-03-06T14:52:06.845Z,13.18
2019-03-06T14:54:31.735Z,13.88
2019-03-06T14:57:02.132Z,14.45
2019-03-06T14:59:31.600Z,15.95
2019-03-06T15:02:01.397Z,15.15
2019-03-06T15:04:31.697Z,18.92
2019-03-06T15:07:01.287Z,16.52
2019-03-06T15:09:31.555Z,20.30
2019-03-06T15:12:01.332Z,22.05
2019-03-06T15:14:36.233Z,12.40
2019-03-06T15:17:01.916Z,14.45
2019-03-06T15:19:32.035Z,15.15
2019-03-06T15:22:02.285Z,13.10
2019-03-06T15:24:40.683Z,15.72
2019-03-06T15:27:03.016Z,8.98
2019-03-06T15:29:32.464Z,15.00
2019-03-06T15:32:01.939Z,13.58
2019-03-06T15:34:31.587Z,8.88
2019-03-06T15:37:01.044Z,21.42
2019-03-06T15:39:42.180Z,10.48
2019-03-06T15:42:12.643Z,9.28
2019-03-06T15:44:42.091Z,9.13
2019-03-06T15:47:11.634Z,16.27
2019-03-06T15:49:41.138Z,9.78
2019-03-06T15:52:11.432Z,10.30
2019-03-06T15:54:41.345Z,11.55
2019-03-06T15:57:10.926Z,13.13
2019-03-06T15:59:41.265Z,14.90
2019-03-06T16:02:14.673Z,12.25
2019-03-06T16:04:44.977Z,10.05
2019-03-06T16:07:17.422Z,8.05
2019-03-06T16:09:46.645Z,12.03
2019-03-06T16:12:18.979Z,7.17
2019-03-06T16:14:50.840Z,9.23
2019-03-06T16:17:21.362Z,7.67
2019-03-06T16:19:51.282Z,10.32
2019-03-06T16:22:20.752Z,7.42
2019-03-06T16:24:50.247Z,9.93
2019-03-06T16:27:19.668Z,11.75
2019-03-06T16:29:49.125Z,9.60
2019-03-06T16:32:18.568Z,9.10
2019-03-06T16:34:48.415Z,14.00
2019-03-06T16:37:17.862Z,10.90
2019-03-06T16:39:47.444Z,23.85
2019-03-06T16:42:17.643Z,21.33
2019-03-06T16:44:48.873Z,10.60
2019-03-06T16:47:18.415Z,15.35
2019-03-06T16:49:47.921Z,21.15
2019-03-06T16:52:17.390Z,10.50
2019-03-06T16:54:47.021Z,23.20
2019-03-06T16:57:17.991Z,58.78
2019-03-06T16:59:47.441Z,22.37
2019-03-06T17:02:19.138Z,48.35
2019-03-06T17:04:48.920Z,48.05
2019-03-06T17:07:18.983Z,17.70
2019-03-06T17:09:48.523Z,12.50
2019-03-06T17:12:18.691Z,10.40
2019-03-06T17:14:48.517Z,7.45
2019-03-06T17:17:18.086Z,9.68
2019-03-06T17:19:48.091Z,8.55
2019-03-06T17:22:17.734Z,9.10
2019-03-06T17:24:47.165Z,10.32
2019-03-06T17:27:16.735Z,6.85
2019-03-06T17:29:46.579Z,6.33
2019-03-06T17:32:16.462Z,11.33
2019-03-06T17:34:45.958Z,12.60
2019-03-06T17:37:15.549Z,12.80
2019-03-06T17:39:45.419Z,8.98
2019-03-06T17:42:18.622Z,9.33
2019-03-06T17:44:48.203Z,8.58
2019-03-06T17:47:17.688Z,9.93
2019-03-06T17:49:47.279Z,7.55
2019-03-06T17:52:17.003Z,12.00
2019-03-06T17:54:46.779Z,10.60
2019-03-06T17:57:16.253Z,15.45
2019-03-06T17:59:46.115Z,8.25
2019-03-06T18:02:15.978Z,8.20
2019-03-06T18:04:45.748Z,18.35
2019-03-06T18:07:16.035Z,9.33
2019-03-06T18:09:46.136Z,13.50
2019-03-06T18:12:16.239Z,9.83
2019-03-06T18:14:47.829Z,9.40
2019-03-06T18:17:17.769Z,9.20
2019-03-06T18:19:49.121Z,10.82
2019-03-06T18:22:18.921Z,9.85
2019-03-06T18:24:49.307Z,9.20
2019-03-06T18:27:26.137Z,8.18
2019-03-06T18:29:51.076Z,12.03
2019-03-06T18:32:21.017Z,8.88
2019-03-06T18:34:52.650Z,17.32
2019-03-06T18:37:22.683Z,11.65
2019-03-06T18:39:52.309Z,9.53
2019-03-06T18:42:22.270Z,8.95
2019-03-06T18:44:52.691Z,8.73
2019-03-06T18:47:22.714Z,12.63
2019-03-06T18:49:54.408Z,9.50
2019-03-06T18:52:24.488Z,8.13
2019-03-06T18:54:55.233Z,9.78
2019-03-06T18:57:24.825Z,8.93
2019-03-06T18:59:54.234Z,11.50
2019-03-06T19:02:26.397Z,11.53
2019-03-06T19:04:56.332Z,9.40
2019-03-06T19:07:26.848Z,10.93
2019-03-06T19:09:56.658Z,10.55
2019-03-06T19:12:28.787Z,8.53
2019-03-06T19:15:00.645Z,9.43
2019-03-06T19:17:30.929Z,8.43
2019-03-06T19:20:01.107Z,9.83
2019-03-06T19:22:31.603Z,9.20
2019-03-06T19:25:01.194Z,11.57
2019-03-06T19:27:30.780Z,12.68
2019-03-06T19:30:00.648Z,14.15
2019-03-06T19:32:30.650Z,13.90
2019-03-06T19:35:01.802Z,10.25
2019-03-06T19:37:31.317Z,9.85
2019-03-06T19:40:01.838Z,8.23
2019-03-06T19:42:33.165Z,10.35
2019-03-06T19:45:05.963Z,11.57
2019-03-06T19:47:36.229Z,8.50
2019-03-06T19:50:08.319Z,10.55
2019-03-06T19:52:38.198Z,8.85
2019-03-06T19:55:07.756Z,10.32
2019-03-06T19:57:53.042Z,9.38
2019-03-06T20:00:24.374Z,10.68
2019-03-06T20:02:55.088Z,9.63
2019-03-06T20:05:31.929Z,13.72
2019-03-06T20:08:03.343Z,10.45
2019-03-06T20:10:33.524Z,18.17
2019-03-06T20:13:05.892Z,10.30
2019-03-06T20:15:36.307Z,11.48
2019-03-06T20:18:06.497Z,10.65
2019-03-06T20:20:36.474Z,10.58
2019-03-06T20:23:07.566Z,9.80
2019-03-06T20:25:37.364Z,11.60
2019-03-06T20:28:07.123Z,10.68
2019-03-06T20:30:36.707Z,11.90
2019-03-06T20:33:06.735Z,10.15
2019-03-06T20:35:36.327Z,9.55
2019-03-06T20:38:06.384Z,11.00
2019-03-06T20:40:54.942Z,12.85
2019-03-06T20:43:24.398Z,12.50
2019-03-06T20:45:55.009Z,13.58
2019-03-06T20:48:24.525Z,14.10
2019-03-06T20:50:54.167Z,15.08
2019-03-06T20:53:23.682Z,11.18
2019-03-06T20:55:53.195Z,12.37
2019-03-06T20:58:22.692Z,14.25
2019-03-06T21:00:52.506Z,12.45
2019-03-06T21:03:22.147Z,12.23
2019-03-06T21:05:51.904Z,16.67
2019-03-06T21:08:22.192Z,15.58
2019-03-06T21:10:51.831Z,12.37
2019-03-06T21:13:21.419Z,13.00
2019-03-06T21:15:50.830Z,12.58
2019-03-06T21:18:20.427Z,14.63
2019-03-06T21:20:50.217Z,12.60
2019-03-06T21:23:19.815Z,15.35
2019-03-06T21:25:49.230Z,16.42
2019-03-06T21:28:18.670Z,15.23
2019-03-06T21:30:48.121Z,15.45
2019-03-06T21:33:17.556Z,13.40
2019-03-06T21:35:48.307Z,16.23
2019-03-06T21:38:17.804Z,16.60
2019-03-06T21:40:47.744Z,13.55
2019-03-06T21:43:17.184Z,11.33
2019-03-06T21:45:46.633Z,11.50
2019-03-06T21:48:16.223Z,14.20
2019-03-06T21:50:46.404Z,12.80
2019-03-06T21:53:15.895Z,15.15
2019-03-06T21:55:45.335Z,14.00
2019-03-06T21:58:14.984Z,16.48
2019-03-06T22:00:44.941Z,13.50
2019-03-06T22:03:14.398Z,15.25
2019-03-06T22:05:43.846Z,15.68
2019-03-06T22:08:13.405Z,13.53
2019-03-06T22:10:42.933Z,15.88
2019-03-06T22:13:12.485Z,13.48
2019-03-06T22:15:42.282Z,14.70
2019-03-06T22:18:11.757Z,13.85
2019-03-06T22:20:42.093Z,13.78
2019-03-06T22:23:11.860Z,11.95
2019-03-06T22:25:41.378Z,19.70
2019-03-06T22:28:10.821Z,19.40
2019-03-06T22:30:40.777Z,22.25
2019-03-06T22:33:10.250Z,17.30
2019-03-06T22:35:40.407Z,12.80
2019-03-06T22:38:09.839Z,15.68
2019-03-06T22:40:39.286Z,15.03
2019-03-06T22:43:08.759Z,16.00
2019-03-06T22:45:38.247Z,16.42
2019-03-06T22:48:07.735Z,19.37
2019-03-06T22:50:37.320Z,13.22
2019-03-06T22:53:06.754Z,16.37
2019-03-06T22:55:36.177Z,13.70
2019-03-06T22:58:09.131Z,15.32
2019-03-06T23:00:56.480Z,18.77
2019-03-06T23:03:27.528Z,13.95
2019-03-06T23:05:56.961Z,13.50
2019-03-06T23:08:26.749Z,16.65
2019-03-06T23:10:56.242Z,14.05
2019-03-06T23:13:26.049Z,18.77
2019-03-06T23:15:55.671Z,17.45
2019-03-06T23:18:25.112Z,14.05
2019-03-06T23:20:54.648Z,13.70
2019-03-06T23:23:24.087Z,16.15
2019-03-06T23:25:53.536Z,17.50
2019-03-06T23:28:22.969Z,14.28
2019-03-06T23:30:52.765Z,14.43
2019-03-06T23:33:22.243Z,18.65
2019-03-06T23:35:51.697Z,12.07
2019-03-06T23:38:21.123Z,14.75
2019-03-06T23:40:50.879Z,17.67
2019-03-06T23:43:20.305Z,16.15
2019-03-06T23:45:49.762Z,13.95
2019-03-06T23:48:19.197Z,18.73
2019-03-06T23:50:48.658Z,15.13
2019-03-06T23:53:22.288Z,16.10
2019-03-06T23:55:51.715Z,17.65
2019-03-06T23:58:21.147Z,18.10
